Time;durP1;ratioP1;P1;durP2;ratioP2;P2;SDS_P1;SDS_P2;PMS_P1;PMS_P2;Temp;Humidity;BMP_temperature;BMP_pressure;BME280_temperature;BME280_humidity;BME280_pressure;Samples;Min_cycle;Max_cycle;Signal;HPM_P1;HPM_P2
2022/08/28 00:00:04;;;;;;;30.05;6.25;;;;;;;23.67;63.48;99601.69;1771052;81;21216;-82
2022/08/28 00:03:10;;;;;;;31.80;7.03;;;;;;;24.03;62.28;99598.84;1771050;81;21208;-82
2022/08/28 00:06:17;;;;;;;29.15;6.47;;;;;;;23.81;62.24;99601.96;1771475;80;21209;-82
2022/08/28 00:09:23;;;;;;;31.30;5.87;;;;;;;23.75;62.37;99591.05;1778038;80;21231;-82
2022/08/28 00:12:30;;;;;;;28.65;6.20;;;;;;;23.89;62.47;99592.16;1779396;80;21168;-82
2022/08/28 00:15:36;;;;;;;33.48;6.33;;;;;;;23.96;61.87;99589.36;1777922;80;21183;-82
2022/08/28 00:18:42;;;;;;;45.83;7.33;;;;;;;24.16;61.14;99589.87;1779454;80;21282;-82
2022/08/28 00:21:48;;;;;;;37.17;6.83;;;;;;;24.06;59.97;99589.91;1778327;80;21762;-82
2022/08/28 00:24:53;;;;;;;36.68;7.10;;;;;;;24.00;59.24;99588.25;1777991;80;21223;-83
2022/08/28 00:28:03;;;;;;;39.63;6.08;;;;;;;24.17;58.25;99579.53;1777946;80;21597;-83
2022/08/28 00:31:12;;;;;;;30.27;5.33;;;;;;;24.06;57.98;99570.34;1778691;80;21172;-83
2022/08/28 00:34:17;;;;;;;41.85;6.58;;;;;;;24.28;57.15;99564.95;1779405;80;21156;-82
2022/08/28 00:37:23;;;;;;;41.88;6.67;;;;;;;24.11;57.67;99564.74;1778087;80;21195;-82
2022/08/28 00:40:31;;;;;;;41.28;6.75;;;;;;;24.07;57.29;99565.03;1779458;80;21180;-83
2022/08/28 00:43:51;;;;;;;61.08;7.12;;;;;;;24.10;57.06;99571.45;1779506;80;21160;-83
2022/08/28 00:46:58;;;;;;;;;;;;;;;24.19;56.93;99575.34;1782072;80;21215;-82
2022/08/28 00:50:04;;;;;;;40.85;6.50;;;;;;;24.20;56.88;99579.80;1779572;80;20658;-82
2022/08/28 00:53:10;;;;;;;30.08;7.00;;;;;;;24.01;57.45;99568.97;1779398;80;21202;-82
2022/08/28 00:56:18;;;;;;;46.73;7.75;;;;;;;24.19;56.81;99576.74;1754903;80;21279;-83
2022/08/28 00:59:27;;;;;;;37.05;6.70;;;;;;;24.14;57.16;99581.52;1780024;80;21180;-83
2022/08/28 01:02:32;;;;;;;33.63;7.30;;;;;;;24.14;57.47;99577.33;1779567;80;22511;-83
2022/08/28 01:05:38;;;;;;;43.35;7.42;;;;;;;24.14;58.03;99575.36;1778901;80;21557;-82
2022/08/28 01:08:44;;;;;;;36.93;6.92;;;;;;;24.01;58.80;99573.72;1772683;80;21203;-82
2022/08/28 01:11:51;;;;;;;35.95;6.00;;;;;;;23.93;59.32;99572.33;1771116;81;21180;-82
2022/08/28 01:14:58;;;;;;;38.13;6.72;;;;;;;24.02;59.71;99567.84;1771382;81;21176;-82
2022/08/28 01:18:07;;;;;;;31.40;6.35;;;;;;;24.01;60.24;99566.17;1771357;81;21188;-82
2022/08/28 01:21:55;;;;;;;42.93;7.92;;;;;;;24.01;60.47;99564.78;1771147;81;21223;-82
2022/08/28 01:25:02;;;;;;;40.20;6.47;;;;;;;23.83;60.75;99555.59;1771179;81;21180;-82
2022/08/28 01:28:10;;;;;;;29.57;6.55;;;;;;;23.85;60.57;99558.92;1755183;81;21184;-83
2022/08/28 01:31:19;;;;;;;37.80;7.33;;;;;;;23.81;60.80;99567.62;1771385;81;21161;-82
2022/08/28 01:34:25;;;;;;;30.75;7.12;;;;;;;23.81;60.87;99567.62;1772006;81;21196;-83
2022/08/28 01:37:32;;;;;;;44.95;7.22;;;;;;;23.74;61.45;99565.09;1770574;81;21188;-82
2022/08/28 01:40:49;;;;;;;37.33;7.17;;;;;;;23.36;62.77;99565.92;1771265;81;21771;-83
2022/08/28 01:43:55;;;;;;;38.40;7.87;;;;;;;23.19;63.48;99563.94;1771180;81;21683;-83
2022/08/28 01:47:03;;;;;;;31.23;6.05;;;;;;;23.14;63.93;99556.97;1770049;81;21738;-82
2022/08/28 01:50:10;;;;;;;39.18;8.70;;;;;;;23.14;64.26;99555.02;1771071;81;21786;-83
2022/08/28 01:53:15;;;;;;;37.83;6.85;;;;;;;23.19;64.23;99555.57;1770252;81;21255;-83
2022/08/28 01:56:23;;;;;;;34.75;7.10;;;;;;;23.20;64.11;99555.88;1770606;81;21203;-83
2022/08/28 01:59:29;;;;;;;24.85;7.10;;;;;;;23.04;64.96;99557.79;1771169;81;21148;-83
2022/08/28 02:02:35;;;;;;;36.63;6.50;;;;;;;22.97;65.59;99546.08;1771228;81;21224;-82
2022/08/28 02:05:41;;;;;;;65.22;7.05;;;;;;;22.86;65.78;99549.36;1771114;81;21287;-82
2022/08/28 02:08:53;;;;;;;41.05;6.28;;;;;;;22.67;65.99;99551.81;1770652;79;21208;-83
2022/08/28 02:11:58;;;;;;;45.33;8.30;;;;;;;22.61;65.46;99548.74;1771368;81;21156;-83
2022/08/28 02:15:06;;;;;;;46.50;6.45;;;;;;;22.54;64.88;99552.36;1771099;81;21180;-83
2022/08/28 02:18:13;;;;;;;37.93;7.17;;;;;;;22.61;64.23;99556.27;1771092;81;21173;-82
2022/08/28 02:21:18;;;;;;;35.52;6.70;;;;;;;22.71;64.03;99564.09;1771130;81;21225;-83
2022/08/28 02:24:17;;;;;;;46.40;6.72;;;;;;;22.87;63.50;99564.16;1769580;81;21238;-83
2022/08/28 02:27:09;;;;;;;31.73;7.05;;;;;;;22.99;63.26;99556.95;1770543;81;21164;-83
2022/08/28 02:30:15;;;;;;;40.48;7.03;;;;;;;23.05;63.16;99560.85;1771195;81;21727;-82
2022/08/28 02:33:21;;;;;;;52.38;7.90;;;;;;;23.14;63.02;99566.17;1771423;81;21200;-83
2022/08/28 02:36:27;;;;;;;39.25;7.25;;;;;;;23.20;62.77;99565.08;1769738;81;21775;-83
2022/08/28 02:39:34;;;;;;;43.87;8.48;;;;;;;23.09;63.42;99560.58;1769938;81;21188;-82
2022/08/28 02:42:40;;;;;;;40.12;7.10;;;;;;;23.12;64.02;99567.02;1771168;81;21172;-82
2022/08/28 02:45:45;;;;;;;33.25;7.10;;;;;;;22.99;65.07;99557.78;1771170;81;22548;-82
2022/08/28 02:48:52;;;;;;;47.93;8.20;;;;;;;22.89;65.48;99570.32;1769679;81;21176;-82
2022/08/28 02:51:59;;;;;;;35.03;7.15;;;;;;;22.97;65.40;99569.79;1771136;81;21165;-82
2022/08/28 02:55:05;;;;;;;44.08;7.17;;;;;;;23.14;64.86;99571.75;1771332;81;21208;-82
2022/08/28 02:58:11;;;;;;;49.05;7.83;;;;;;;23.24;64.87;99574.27;1770102;81;21233;-83
2022/08/28 03:01:18;;;;;;;39.40;9.83;;;;;;;23.22;65.71;99574.56;1771097;81;21160;-83
2022/08/28 03:04:25;;;;;;;31.45;9.80;;;;;;;23.24;67.25;99579.84;1771792;81;21735;-83
2022/08/28 03:07:31;;;;;;;38.83;9.60;;;;;;;23.16;68.19;99579.30;1770510;81;21156;-83
2022/08/28 03:10:31;;;;;;;37.05;9.03;;;;;;;23.12;68.63;99583.75;1770743;79;21314;-83
2022/08/28 03:13:37;;;;;;;38.83;8.83;;;;;;;23.20;67.70;99577.63;1771292;81;21172;-83
2022/08/28 03:16:42;;;;;;;31.80;7.75;;;;;;;23.15;67.47;99574.84;1771141;81;21175;-83
2022/08/28 03:19:53;;;;;;;31.90;8.63;;;;;;;23.24;67.04;99579.28;1771194;81;21156;-83
2022/08/28 03:26:24;;;;;;;31.15;8.55;;;;;;;23.26;67.39;99584.05;1771145;81;21161;-83
2022/08/28 03:29:31;;;;;;;34.45;8.18;;;;;;;23.23;67.54;99591.56;1771472;81;21173;-82
2022/08/28 03:32:37;;;;;;;37.45;9.63;;;;;;;23.04;68.21;99593.21;1771197;81;21544;-82
2022/08/28 03:35:42;;;;;;;35.28;9.18;;;;;;;23.12;67.98;99593.52;1771157;81;21683;-83
2022/08/28 03:38:50;;;;;;;42.95;9.75;;;;;;;22.74;69.71;99593.95;1769648;81;21283;-82
2022/08/28 03:41:56;;;;;;;46.13;11.22;;;;;;;22.90;70.25;99591.50;1771050;81;21810;-83
2022/08/28 03:45:02;;;;;;;47.93;10.95;;;;;;;23.06;70.44;99591.84;1771074;81;21218;-83
2022/08/28 03:48:03;;;;;;;38.53;10.58;;;;;;;23.14;70.46;99588.48;1770487;81;21176;-83
2022/08/28 03:51:15;;;;;;;34.73;11.10;;;;;;;23.33;70.20;99589.34;1770127;81;21216;-83
2022/08/28 03:54:22;;;;;;;54.45;10.82;;;;;;;23.43;70.39;99588.81;1770876;81;21251;-83
2022/08/28 03:57:29;;;;;;;50.43;11.73;;;;;;;23.44;70.46;99586.86;1770962;81;21254;-83
2022/08/28 04:00:35;;;;;;;45.00;10.50;;;;;;;23.68;70.11;99586.60;1771153;81;21153;-83
2022/08/28 04:03:43;;;;;;;47.48;12.18;;;;;;;24.00;69.45;99582.66;1769761;81;21160;-83
2022/08/28 04:06:42;;;;;;;48.10;11.78;;;;;;;23.91;69.74;99580.16;1771211;81;21176;-83
2022/08/28 04:09:47;;;;;;;50.05;10.38;;;;;;;23.64;70.83;99578.50;1769936;81;21259;-82
2022/08/28 04:12:53;;;;;;;42.17;11.70;;;;;;;23.91;69.96;99570.39;1770969;81;21167;-83
2022/08/28 04:16:11;;;;;;;48.42;11.25;;;;;;;24.16;69.11;99573.11;1770911;81;21176;-83
2022/08/28 04:19:18;;;;;;;48.42;11.10;;;;;;;24.25;69.06;99575.33;1769670;81;21212;-83
2022/08/28 04:22:23;;;;;;;34.70;10.25;;;;;;;24.44;68.47;99577.80;1771021;81;21148;-83
2022/08/28 04:25:30;;;;;;;45.83;11.22;;;;;;;23.97;69.76;99591.59;1770192;81;21255;-82
2022/08/28 04:28:34;;;;;;;40.60;11.03;;;;;;;23.90;70.28;99591.03;1770552;81;21215;-83
2022/08/28 04:31:40;;;;;;;43.33;10.32;;;;;;;24.06;69.80;99588.50;1771122;81;21152;-83
2022/08/28 04:34:47;;;;;;;49.00;12.18;;;;;;;24.04;70.17;99592.13;1771058;81;21774;-83
2022/08/28 04:37:53;;;;;;;54.30;10.90;;;;;;;24.05;69.81;99592.98;1771223;81;21152;-83
2022/08/28 04:41:00;;;;;;;37.45;10.08;;;;;;;24.18;68.97;99590.44;1770028;81;21200;-82
2022/08/28 04:44:08;;;;;;;44.15;10.35;;;;;;;24.29;68.17;99596.00;1771183;81;21165;-83
2022/08/28 04:47:13;;;;;;;43.92;9.90;;;;;;;24.60;66.56;99591.98;1771139;81;21719;-82
2022/08/28 04:50:13;;;;;;;35.40;8.88;;;;;;;24.85;64.69;99595.80;1770661;81;21211;-82
2022/08/28 04:53:19;;;;;;;40.03;8.63;;;;;;;24.90;63.59;99594.38;1771077;81;22469;-82
2022/08/28 04:56:24;;;;;;;47.10;9.05;;;;;;;25.00;62.59;99595.70;1770023;81;21184;-82
2022/08/28 04:59:30;;;;;;;54.42;8.85;;;;;;;25.14;61.75;99604.33;1770204;81;21188;-82
2022/08/28 05:02:37;;;;;;;55.67;9.08;;;;;;;25.21;61.63;99600.06;1771133;81;21786;-82
2022/08/28 05:05:50;;;;;;;54.95;8.53;;;;;;;25.35;60.24;99602.22;1771167;81;21219;-82
2022/08/28 05:08:57;;;;;;;41.50;7.67;;;;;;;25.37;59.53;99606.97;1769701;81;21244;-82
2022/08/28 05:12:03;;;;;;;32.08;7.17;;;;;;;25.62;58.17;99608.16;1770136;80;21208;-82
2022/08/28 05:15:11;;;;;;;38.45;7.37;;;;;;;25.72;58.82;99609.47;1771377;81;21141;-82
2022/08/28 05:18:16;;;;;;;25.90;7.53;;;;;;;25.87;57.41;99615.53;1771243;81;21176;-83
2022/08/28 05:21:26;;;;;;;35.20;6.62;;;;;;;26.11;56.67;99611.41;1771231;81;21145;-82
2022/08/28 05:24:32;;;;;;;37.30;7.47;;;;;;;26.27;56.22;99609.83;1771087;81;21185;-82
2022/08/28 05:27:39;;;;;;;32.67;6.15;;;;;;;26.50;55.57;99615.47;1771339;81;21140;-82
2022/08/28 05:30:46;;;;;;;39.00;6.50;;;;;;;26.89;54.63;99614.98;1771155;81;21157;-82
2022/08/28 05:33:52;;;;;;;23.25;6.25;;;;;;;27.21;53.73;99615.13;1771219;81;21168;-82
2022/08/28 05:36:57;;;;;;;37.45;6.58;;;;;;;27.29;53.59;99611.34;1771387;81;21208;-83
2022/08/28 05:40:04;;;;;;;39.23;6.53;;;;;;;27.16;53.43;99613.80;1770445;81;21200;-82
2022/08/28 05:43:09;;;;;;;42.17;6.42;;;;;;;27.53;53.19;99612.11;1769715;81;21696;-82
2022/08/28 05:46:16;;;;;;;39.40;6.67;;;;;;;27.43;53.37;99613.11;1769745;81;21156;-83
2022/08/28 05:49:20;;;;;;;33.40;6.50;;;;;;;27.61;53.13;99614.78;1770948;81;21212;-82
2022/08/28 05:52:27;;;;;;;28.98;5.45;;;;;;;27.76;52.94;99608.96;1769753;81;21723;-83
2022/08/28 05:55:34;;;;;;;36.50;5.42;;;;;;;28.05;51.62;99613.51;1769761;81;21338;-82
2022/08/28 05:58:40;;;;;;;37.83;6.10;;;;;;;28.00;52.06;99612.45;1771188;81;21239;-83
2022/08/28 06:01:49;;;;;;;29.98;5.67;;;;;;;28.07;53.69;99610.64;1771133;81;21165;-82
2022/08/28 06:04:56;;;;;;;;;;;;;;;28.25;53.27;99605.52;1773701;81;21173;-82
2022/08/28 06:08:02;;;;;;;28.23;5.65;;;;;;;28.26;53.72;99607.75;1769716;81;20213;-82
2022/08/28 06:11:07;;;;;;;39.03;6.15;;;;;;;28.38;53.72;99608.70;1769710;81;21224;-82
2022/08/28 06:14:17;;;;;;;50.60;5.70;;;;;;;28.71;53.69;99610.83;1776370;80;21203;-82
2022/08/28 06:17:23;;;;;;;23.30;5.22;;;;;;;29.01;53.67;99609.35;1779570;80;21169;-82
2022/08/28 06:20:28;;;;;;;40.65;6.70;;;;;;;29.57;52.58;99608.07;1778563;80;21262;-82
2022/08/28 06:23:35;;;;;;;30.80;6.42;;;;;;;29.69;52.69;99611.16;1779303;80;21177;-83
2022/08/28 06:26:41;;;;;;;44.10;6.40;;;;;;;29.88;53.54;99606.73;1779035;80;21798;-83
2022/08/28 06:29:47;;;;;;;40.10;6.75;;;;;;;30.11;53.63;99621.60;1779113;80;21786;-82
2022/08/28 06:32:54;;;;;;;33.63;5.53;;;;;;;30.42;54.38;99623.05;1779378;80;21168;-82
2022/08/28 06:36:02;;;;;;;49.50;6.67;;;;;;;30.79;54.46;99623.73;1756706;80;21160;-83
2022/08/28 06:39:02;;;;;;;29.85;5.47;;;;;;;31.00;53.62;99629.58;1777863;80;21176;-83
2022/08/28 06:41:54;;;;;;;53.20;7.78;;;;;;;31.45;51.43;99627.36;1779243;80;21196;-83
2022/08/28 06:45:01;;;;;;;50.63;7.35;;;;;;;31.54;50.62;99628.77;1778804;80;21700;-83
2022/08/28 06:48:06;;;;;;;34.05;6.25;;;;;;;31.53;51.50;99632.77;1778372;80;21235;-83
2022/08/28 06:51:14;;;;;;;37.40;5.67;;;;;;;31.35;52.38;99632.51;1777557;80;21231;-83
2022/08/28 06:54:22;;;;;;;28.90;5.65;;;;;;;31.26;52.43;99631.05;1779206;80;21207;-83
2022/08/28 06:57:28;;;;;;;33.50;6.30;;;;;;;31.57;52.24;99636.56;1778775;80;21207;-83
2022/08/28 07:00:35;;;;;;;40.03;5.92;;;;;;;31.35;51.18;99629.09;1778787;80;21267;-83
2022/08/28 07:03:42;;;;;;;28.73;6.00;;;;;;;31.35;51.18;99629.09;1779250;80;21278;-83
2022/08/28 07:06:49;;;;;;;46.55;5.67;;;;;;;31.64;51.08;99639.73;1779354;80;21429;-83
2022/08/28 07:09:57;;;;;;;38.78;5.55;;;;;;;31.91;49.94;99636.34;1779316;80;21172;-83
2022/08/28 07:13:04;;;;;;;38.85;7.22;;;;;;;31.83;49.89;99625.88;1778458;80;21309;-83
2022/08/28 07:16:09;;;;;;;36.17;5.83;;;;;;;31.83;49.89;99625.88;1776456;81;21731;-83
2022/08/28 07:19:17;;;;;;;45.30;6.25;;;;;;;31.84;50.66;99628.94;1776309;81;21611;-82
2022/08/28 07:22:25;;;;;;;43.42;7.22;;;;;;;32.21;49.16;99621.13;1776569;81;21187;-83
2022/08/28 07:25:31;;;;;;;28.23;5.67;;;;;;;32.21;49.16;99621.13;1776618;81;21207;-83
2022/08/28 07:28:36;;;;;;;36.90;5.85;;;;;;;32.18;50.03;99621.79;1775857;81;21184;-83
2022/08/28 07:31:45;;;;;;;42.40;6.37;;;;;;;32.08;50.46;99614.25;1775680;81;21470;-82
2022/08/28 07:34:51;;;;;;;46.30;6.37;;;;;;;31.96;50.54;99619.20;1775283;80;21219;-81
2022/08/28 07:37:57;;;;;;;33.83;5.62;;;;;;;32.06;49.97;99609.77;1776496;81;21172;-83
2022/08/28 07:41:02;;;;;;;39.10;6.30;;;;;;;32.07;50.13;99619.09;1776110;81;21207;-83
2022/08/28 07:47:37;;;;;;;33.58;6.25;;;;;;;32.13;48.84;99615.48;1775159;81;21172;-83
2022/08/28 07:50:37;;;;;;;39.80;5.70;;;;;;;32.20;48.89;99620.06;1775949;81;21234;-82
2022/08/28 07:53:42;;;;;;;31.45;6.15;;;;;;;32.06;49.37;99621.67;1776568;81;21152;-83
2022/08/28 07:56:48;;;;;;;29.55;5.37;;;;;;;32.56;48.17;99613.97;1776634;81;21164;-83
2022/08/28 07:59:55;;;;;;;36.23;5.25;;;;;;;32.88;47.20;99613.04;1775213;81;21209;-82
2022/08/28 08:03:03;;;;;;;42.93;5.90;;;;;;;33.17;46.57;99609.38;1776902;81;21224;-83
2022/08/28 08:06:12;;;;;;;27.87;4.55;;;;;;;32.68;46.54;99618.31;1745128;82;21192;-83
2022/08/28 08:09:21;;;;;;;39.60;5.35;;;;;;;33.00;46.48;99605.50;1743929;82;21802;-83
2022/08/28 08:12:27;;;;;;;31.68;5.45;;;;;;;32.64;47.95;99610.84;1743874;82;21196;-83
2022/08/28 08:15:34;;;;;;;45.70;6.00;;;;;;;33.11;47.31;99598.02;1745439;80;21246;-83
2022/08/28 08:18:40;;;;;;;51.20;8.63;;;;;;;33.18;47.58;99606.22;1745580;82;21801;-83
2022/08/28 08:21:46;;;;;;;42.17;7.05;;;;;;;33.16;46.58;99601.47;1745373;82;21219;-83
2022/08/28 08:24:54;;;;;;;30.55;5.50;;;;;;;33.18;47.18;99596.89;1744423;82;21179;-83
2022/08/28 08:28:02;;;;;;;44.90;6.92;;;;;;;33.60;46.25;99602.00;1744576;82;21183;-84
2022/08/28 08:31:19;;;;;;;36.00;6.35;;;;;;;33.43;47.01;99589.39;1745988;82;21798;-83
2022/08/28 08:34:26;;;;;;;38.88;6.12;;;;;;;32.54;47.83;99590.23;1744433;82;21258;-83
2022/08/28 08:37:31;;;;;;;47.15;7.55;;;;;;;33.48;46.69;99585.75;1745867;82;21188;-83
2022/08/28 08:40:37;;;;;;;36.35;5.80;;;;;;;33.66;46.32;99584.18;1745994;82;21192;-83
2022/08/28 08:43:50;;;;;;;39.80;6.87;;;;;;;33.33;46.09;99582.92;1746040;82;21243;-83
2022/08/28 08:47:02;;;;;;;40.70;6.10;;;;;;;33.28;46.78;99580.30;1745884;82;21223;-83
2022/08/28 08:50:22;;;;;;;45.35;7.85;;;;;;;33.13;47.37;99576.68;1745568;82;21275;-83
2022/08/28 08:53:51;;;;;;;55.43;6.78;;;;;;;33.05;47.46;99578.98;1744729;82;21180;-82
2022/08/28 08:56:58;;;;;;;32.78;5.75;;;;;;;33.02;47.00;99580.48;1745956;82;21172;-82
2022/08/28 09:00:05;;;;;;;45.80;6.78;;;;;;;33.03;47.46;99581.31;1745257;82;21214;-82
2022/08/28 09:03:21;;;;;;;42.62;5.85;;;;;;;32.99;48.02;99567.03;1744848;82;21259;-83
2022/08/28 09:06:35;;;;;;;44.75;6.65;;;;;;;33.13;48.36;99569.59;1745875;82;21176;-82
2022/08/28 09:09:45;;;;;;;46.20;6.45;;;;;;;33.51;46.34;99574.31;1745857;82;21184;-83
2022/08/28 09:13:09;;;;;;;50.30;6.60;;;;;;;33.58;47.42;99571.73;1745456;82;21734;-82
2022/08/28 09:16:25;;;;;;;35.48;6.62;;;;;;;33.81;45.44;99575.84;1746052;80;21747;-82
2022/08/28 09:19:31;;;;;;;35.68;5.72;;;;;;;33.88;45.43;99566.78;1745947;82;21176;-82
2022/08/28 09:22:38;;;;;;;34.85;6.15;;;;;;;33.77;45.70;99559.87;1745280;82;21759;-82
2022/08/28 09:26:08;;;;;;;31.95;5.78;;;;;;;33.78;44.94;99562.38;1745829;82;21175;-82
2022/08/28 09:29:17;;;;;;;29.87;5.45;;;;;;;33.54;46.39;99563.68;1745938;82;21282;-83
2022/08/28 09:32:40;;;;;;;40.33;6.17;;;;;;;33.58;46.18;99558.98;1722788;82;21218;-83
2022/08/28 09:35:46;;;;;;;38.30;6.28;;;;;;;33.58;45.48;99558.98;1745829;82;21995;-83
2022/08/28 09:38:53;;;;;;;40.10;6.00;;;;;;;33.63;45.29;99563.01;1746056;82;21180;-82
2022/08/28 09:46:06;;;;;;;47.65;5.97;;;;;;;33.81;44.55;99555.98;1745273;82;21200;-83
2022/08/28 09:49:19;;;;;;;27.32;4.05;;;;;;;33.85;44.76;99556.12;1744657;82;21199;-82
2022/08/28 09:52:27;;;;;;;26.68;5.05;;;;;;;33.85;44.03;99546.20;1745755;82;21269;-83
2022/08/28 09:55:54;;;;;;;26.07;5.22;;;;;;;33.92;43.62;99547.02;1745793;82;21168;-83
2022/08/28 09:59:03;;;;;;;25.70;5.15;;;;;;;34.15;41.89;99552.55;1745900;82;21227;-83
2022/08/28 10:02:32;;;;;;;28.55;4.60;;;;;;;34.04;42.67;99555.61;1745846;82;21159;-83
2022/08/28 10:05:55;;;;;;;26.33;4.83;;;;;;;33.99;43.12;99553.00;1745989;82;21191;-83
2022/08/28 10:09:26;;;;;;;31.68;5.17;;;;;;;34.16;42.73;99564.72;1745900;82;21727;-83
2022/08/28 10:12:47;;;;;;;32.25;5.28;;;;;;;34.01;42.69;99560.55;1745952;82;21794;-82
2022/08/28 10:16:14;;;;;;;38.70;5.78;;;;;;;34.06;42.09;99559.73;1745444;82;21236;-83
2022/08/28 10:19:58;;;;;;;39.13;5.85;;;;;;;33.88;41.97;99561.67;1779525;80;21232;-83
2022/08/28 10:23:20;;;;;;;40.85;5.15;;;;;;;33.89;42.45;99567.01;1779235;80;21260;-83
2022/08/28 10:26:46;;;;;;;28.75;5.12;;;;;;;33.87;41.84;99564.27;1779614;80;21172;-83
2022/08/28 10:30:07;;;;;;;32.65;5.28;;;;;;;33.76;41.96;99559.05;1779568;80;21180;-83
2022/08/28 10:33:35;;;;;;;21.68;5.40;;;;;;;33.44;43.05;99564.11;1779316;80;21196;-83
2022/08/28 10:36:42;;;;;;;34.15;6.05;;;;;;;33.45;42.97;99553.83;1779630;80;21137;-83
2022/08/28 10:40:07;;;;;;;34.63;5.72;;;;;;;33.54;42.42;99557.42;1758147;80;21164;-83
2022/08/28 10:43:22;;;;;;;32.38;5.67;;;;;;;33.58;42.23;99556.97;1779276;80;21263;-83
2022/08/28 10:46:44;;;;;;;30.35;5.08;;;;;;;33.76;42.01;99551.13;1778891;80;21216;-83
2022/08/28 10:50:00;;;;;;;35.58;5.35;;;;;;;33.76;41.77;99553.38;1779477;80;21267;-83
2022/08/28 10:53:18;;;;;;;38.65;6.05;;;;;;;33.64;42.16;99547.65;1779453;80;21234;-82
2022/08/28 10:56:46;;;;;;;24.12;4.72;;;;;;;33.60;42.35;99548.13;1779603;80;21181;-82
2022/08/28 10:59:54;;;;;;;24.23;5.15;;;;;;;33.57;42.20;99547.40;1779577;80;21295;-82
2022/08/28 11:03:12;;;;;;;38.98;5.62;;;;;;;33.46;43.31;99549.02;1779633;80;21185;-82
2022/08/28 11:06:49;;;;;;;38.38;5.72;;;;;;;33.35;43.27;99551.39;1778936;80;21175;-82
2022/08/28 11:09:55;;;;;;;29.55;4.70;;;;;;;33.57;42.97;99551.66;1779305;80;21224;-83
2022/08/28 11:13:00;;;;;;;25.08;5.12;;;;;;;33.80;42.45;99550.08;1779534;80;21806;-82
2022/08/28 11:16:06;;;;;;;36.68;5.22;;;;;;;33.87;41.80;99552.33;1779270;80;21782;-83
2022/08/28 11:19:22;;;;;;;24.05;4.40;;;;;;;33.91;42.13;99546.20;1758701;80;21191;-83
2022/08/28 11:22:31;;;;;;;27.77;5.90;;;;;;;33.82;41.42;99553.38;1745783;82;21176;-83
2022/08/28 11:26:00;;;;;;;28.45;5.05;;;;;;;33.78;42.04;99545.92;1745890;82;21187;-83
2022/08/28 11:29:06;;;;;;;35.30;5.30;;;;;;;34.22;41.65;99546.30;1746107;82;21196;-83
2022/08/28 11:32:42;;;;;;;26.70;4.55;;;;;;;34.39;41.35;99538.14;1745077;82;21900;-83
2022/08/28 11:35:51;;;;;;;17.65;3.95;;;;;;;34.72;40.13;99540.28;1745712;82;21725;-83
2022/08/28 11:39:06;;;;;;;28.73;4.65;;;;;;;34.45;39.47;99540.41;1745959;82;21176;-82
2022/08/28 11:42:36;;;;;;;22.93;4.50;;;;;;;34.69;38.74;99545.28;1745924;82;21166;-82
2022/08/28 11:45:56;;;;;;;22.58;5.12;;;;;;;34.47;38.24;99542.31;1720684;82;21204;-82
2022/08/28 11:49:04;;;;;;;37.50;5.15;;;;;;;34.62;37.90;99537.11;1744477;82;21747;-82
2022/08/28 11:52:31;;;;;;;31.52;5.60;;;;;;;34.20;39.08;99537.30;1746023;82;21176;-82
2022/08/28 11:56:18;;;;;;;28.50;4.90;;;;;;;34.21;39.11;99534.13;1744860;82;21235;-82
2022/08/28 12:00:06;;;;;;;32.73;5.35;;;;;;;34.24;39.68;99532.58;1744615;82;21164;-82
2022/08/28 12:03:21;;;;;;;30.37;5.50;;;;;;;34.30;38.98;99530.59;1744715;82;21259;-83
2022/08/28 12:06:58;;;;;;;30.43;6.40;;;;;;;34.23;38.63;99532.34;1745915;82;21152;-83
2022/08/28 12:10:04;;;;;;;24.47;5.83;;;;;;;34.28;38.32;99520.76;1744642;82;21346;-82
2022/08/28 12:13:14;;;;;;;41.23;7.25;;;;;;;34.37;38.20;99523.48;1745940;82;21770;-83
2022/08/28 12:16:21;;;;;;;35.43;5.55;;;;;;;34.32;38.05;99521.71;1746200;82;21834;-82
2022/08/28 12:19:52;;;;;;;27.27;5.15;;;;;;;34.45;38.60;99510.60;1752661;81;21260;-83
2022/08/28 12:23:02;;;;;;;29.50;5.42;;;;;;;34.36;38.91;99514.74;1715245;83;21153;-82
2022/08/28 12:26:21;;;;;;;39.65;5.45;;;;;;;34.18;38.60;99503.61;1713643;83;21240;-82
2022/08/28 12:29:41;;;;;;;31.52;5.72;;;;;;;34.35;37.92;99499.73;1683835;85;21260;-83
2022/08/28 12:32:55;;;;;;;38.10;6.60;;;;;;;34.62;37.73;99501.61;1714418;82;21276;-82
2022/08/28 12:36:00;;;;;;;41.90;6.75;;;;;;;34.87;37.52;99498.16;1685443;85;21216;-82
2022/08/28 12:39:06;;;;;;;39.75;6.30;;;;;;;34.88;36.80;99501.23;1693374;83;21200;-82
2022/08/28 12:42:11;;;;;;;38.28;5.92;;;;;;;34.91;36.31;99491.97;1685182;85;21193;-83
2022/08/28 12:45:16;;;;;;;39.85;6.30;;;;;;;34.74;37.16;99493.09;1691138;83;21232;-83
2022/08/28 12:48:31;;;;;;;33.35;5.72;;;;;;;34.84;37.24;99491.99;1684492;84;21301;-83
2022/08/28 12:51:40;;;;;;;34.03;5.45;;;;;;;34.81;36.70;99491.28;1713721;83;21311;-83
2022/08/28 12:54:47;;;;;;;29.92;5.33;;;;;;;34.84;36.65;99484.06;1686492;85;21189;-83
2022/08/28 12:57:53;;;;;;;35.63;5.37;;;;;;;34.64;36.59;99486.48;1714994;83;21201;-83
2022/08/28 13:01:05;;;;;;;43.98;6.03;;;;;;;34.51;37.14;99487.08;1686630;85;21200;-83
2022/08/28 13:04:43;;;;;;;39.90;6.25;;;;;;;34.61;36.51;99489.43;1713887;83;21224;-82
2022/08/28 13:07:55;;;;;;;40.80;5.90;;;;;;;34.67;37.05;99487.99;1684996;85;21624;-82
2022/08/28 13:10:56;;;;;;;49.40;5.90;;;;;;;34.51;37.26;99483.65;1714990;83;21184;-83
2022/08/28 13:14:03;;;;;;;48.25;6.67;;;;;;;34.48;37.78;99482.11;1685097;85;21277;-83
2022/08/28 13:17:09;;;;;;;27.42;5.45;;;;;;;34.41;37.26;99477.01;1714969;83;21208;-83
2022/08/28 13:20:15;;;;;;;46.70;6.28;;;;;;;34.51;37.22;99475.73;1690907;84;21244;-83
2022/08/28 13:23:35;;;;;;;38.78;6.17;;;;;;;34.52;36.68;99476.78;1688794;85;21169;-83
2022/08/28 13:26:42;;;;;;;45.05;6.03;;;;;;;34.44;37.15;99468.35;1687679;85;21240;-83
2022/08/28 13:30:04;;;;;;;48.50;6.45;;;;;;;34.42;37.26;99467.90;1688999;85;21771;-83
2022/08/28 13:33:26;;;;;;;39.10;6.85;;;;;;;34.35;37.20;99467.09;1688642;85;21228;-82
2022/08/28 13:36:32;;;;;;;46.48;7.00;;;;;;;34.24;37.05;99463.88;1670088;85;21193;-83
2022/08/28 13:39:39;;;;;;;44.55;7.37;;;;;;;34.23;36.40;99459.98;1650968;85;21193;-83
2022/08/28 13:42:46;;;;;;;50.85;7.62;;;;;;;34.14;36.11;99460.69;1688854;85;21796;-83
2022/08/28 13:45:53;;;;;;;51.33;6.50;;;;;;;34.03;35.62;99460.34;1688354;85;21231;-82
2022/08/28 13:49:00;;;;;;;44.25;6.15;;;;;;;33.83;35.49;99455.80;1688205;85;21228;-83
2022/08/28 13:52:06;;;;;;;46.13;6.83;;;;;;;33.73;36.11;99454.81;1688856;85;21200;-83
2022/08/28 13:55:08;;;;;;;38.92;6.40;;;;;;;33.69;35.66;99455.31;1687433;85;21204;-83
2022/08/28 13:58:14;;;;;;;44.25;5.85;;;;;;;33.65;36.02;99460.02;1688762;85;21220;-83
2022/08/28 14:01:20;;;;;;;45.52;7.35;;;;;;;33.63;36.09;99465.20;1688808;85;21209;-82
2022/08/28 14:04:28;;;;;;;50.35;7.45;;;;;;;33.60;35.92;99466.52;1709960;83;21233;-83
2022/08/28 14:07:33;;;;;;;42.83;7.00;;;;;;;33.68;35.48;99462.73;1710049;84;21241;-83
2022/08/28 14:10:43;;;;;;;35.45;6.58;;;;;;;33.53;35.68;99467.06;1745967;82;21193;-82
2022/08/28 14:14:03;;;;;;;30.70;6.70;;;;;;;33.40;35.64;99465.33;1744803;82;21201;-82
2022/08/28 14:17:09;;;;;;;48.38;6.05;;;;;;;33.29;35.93;99462.12;1745169;82;21802;-83
2022/08/28 14:20:14;;;;;;;39.67;6.47;;;;;;;33.26;36.26;99470.71;1745649;82;21244;-82
2022/08/28 14:23:19;;;;;;;32.38;5.95;;;;;;;33.29;36.16;99470.03;1720962;83;21196;-82
2022/08/28 14:26:25;;;;;;;36.53;6.33;;;;;;;33.15;37.09;99481.42;1721053;83;21938;-83
2022/08/28 14:29:30;;;;;;;35.95;6.28;;;;;;;33.24;36.67;99478.74;1720586;83;21216;-83
2022/08/28 14:32:39;;;;;;;39.27;6.37;;;;;;;33.25;36.50;99477.56;1720792;83;21209;-82
2022/08/28 14:35:47;;;;;;;29.82;6.40;;;;;;;33.21;36.57;99480.84;1720448;83;21248;-83
2022/08/28 14:38:55;;;;;;;36.10;5.80;;;;;;;33.22;36.50;99488.19;1720971;83;21205;-83
2022/08/28 14:42:01;;;;;;;35.95;4.85;;;;;;;32.99;36.65;99485.48;1721368;83;21201;-83
2022/08/28 14:45:08;;;;;;;29.05;5.83;;;;;;;32.68;37.38;99487.26;1720616;83;21240;-82
2022/08/28 14:48:16;;;;;;;41.58;6.70;;;;;;;32.67;36.97;99499.76;1719499;83;21303;-83
2022/08/28 14:51:22;;;;;;;51.33;6.83;;;;;;;32.71;36.61;99500.73;1720199;82;21236;-83